Airfield :







YOU CAN JOIN US ON...

 
LOGIN :

Register | Disclaimer

   EN    FR    IT 

 









Legend :    VFR   Marginal VFR   IFR   Intensive IFR   Very Intensive IFR
Visi :
Ceiling :
>= 8 km
>= 3000ft
5 to 8 km
1000 to 3000 ft
1500m to 5 km
500 to 1000 ft
800 to 1500m
200 to 500 ft
< 800m
< 200 ft
Symbols :   Thunderstorms  Fog  Heavy snow  Heavy precipitations  Wind > 20 kt






- Airport Elevation : 180 ft
- IATA code : YZV


CYZV - Sept-Iles

CURRENT METAR :
  • 170400Z 29009KT 15SM FEW040 M05/M10 A3026 RMK SC2 SLP253

EXPIRED METARs :
  • 170300Z 27007KT 15SM FEW040 M06/M10 A3024 RMK SC1 SLP247
  • 170200Z 29009KT 15SM FEW040 M05/M09 A3022 RMK SC1 SLP240

TAF TAF CYZV
Valid from the 17 at 00:00 until the 18 at 00:00 UTC


162338Z 1700/1724 30010G20KT P6SM FEW040
BECMG 1704/1706 30008KT
FM171800 24008KT P6SM BKN100 RMK NXT FCST BY 170600Z



MET'MAP, your aeronautical weather chart ! - Copyright ORBIFLY December 2007 - Disclaimer

ORBIFLY MET'MAP TEAM :

Programming & Development : Alexandra Zaïnal
Concept & Development : Baudouin d'Aumeries
Co-Development & Prog : Marc-Olivier Méhu
Technical & hardware support : Manuel Goepfert

Contact : metmap@orbifly.com




SOURCES & CREDITS :

   NOAA